createdAt,value
2019-04-30T00:02:16.589Z,7.03
2019-04-30T00:04:48.831Z,7.93
2019-04-30T00:07:19.156Z,6.97
2019-04-30T00:09:53.828Z,7.70
2019-04-30T00:12:21.540Z,7.90
2019-04-30T00:14:51.293Z,7.57
2019-04-30T00:17:21.558Z,7.97
2019-04-30T00:19:55.948Z,7.70
2019-04-30T00:22:33.244Z,7.30
2019-04-30T00:24:55.799Z,7.63
2019-04-30T00:27:30.067Z,8.00
2019-04-30T00:30:00.380Z,7.77
2019-04-30T00:32:29.018Z,8.20
2019-04-30T00:34:58.799Z,8.07
2019-04-30T00:37:28.614Z,8.07
2019-04-30T00:39:58.395Z,8.37
2019-04-30T00:42:29.017Z,8.40
2019-04-30T00:44:59.757Z,8.53
2019-04-30T00:47:30.239Z,7.93
2019-04-30T00:50:00.389Z,8.03
2019-04-30T00:52:33.931Z,8.77
2019-04-30T00:55:05.475Z,7.93
2019-04-30T00:57:37.276Z,8.43
2019-04-30T01:00:06.127Z,8.07
2019-04-30T01:02:47.919Z,8.53
2019-04-30T01:05:19.213Z,8.63
2019-04-30T01:07:51.799Z,8.00
2019-04-30T01:10:24.846Z,8.60
2019-04-30T01:12:52.568Z,9.27
2019-04-30T01:15:22.909Z,8.87
2019-04-30T01:17:53.967Z,9.43
2019-04-30T01:20:28.463Z,8.33
2019-04-30T01:22:55.968Z,9.57
2019-04-30T01:25:25.789Z,9.00
2019-04-30T01:27:55.533Z,9.40
2019-04-30T01:30:28.457Z,9.13
2019-04-30T01:33:00.929Z,8.67
2019-04-30T01:35:32.746Z,8.83
2019-04-30T01:38:03.958Z,9.80
2019-04-30T01:40:33.709Z,9.67
2019-04-30T01:43:03.464Z,9.23
2019-04-30T01:45:33.292Z,9.10
2019-04-30T01:48:08.936Z,9.17
2019-04-30T01:50:38.642Z,9.27
2019-04-30T01:53:11.497Z,9.37
2019-04-30T01:55:55.036Z,9.60
2019-04-30T01:58:33.432Z,9.70
2019-04-30T02:01:09.013Z,9.47
2019-04-30T02:03:40.035Z,10.43
2019-04-30T02:06:11.659Z,9.37
2019-04-30T02:08:41.881Z,9.33
2019-04-30T02:11:11.717Z,10.70
2019-04-30T02:13:41.828Z,9.40
2019-04-30T02:16:12.318Z,9.47
2019-04-30T02:18:42.086Z,9.87
2019-04-30T02:21:11.885Z,9.50
2019-04-30T02:23:42.083Z,10.10
2019-04-30T02:26:12.267Z,9.73
2019-04-30T02:28:42.004Z,11.37
2019-04-30T02:31:12.310Z,10.13
2019-04-30T02:33:44.370Z,9.83
2019-04-30T02:36:45.165Z,11.70
2019-04-30T02:39:14.949Z,10.73
2019-04-30T02:41:44.776Z,10.63
2019-04-30T02:44:14.553Z,9.20
2019-04-30T02:46:44.651Z,10.20
2019-04-30T02:49:14.419Z,10.27
2019-04-30T02:51:45.120Z,9.43
2019-04-30T02:54:33.799Z,10.63
2019-04-30T02:57:14.000Z,9.53
2019-04-30T03:00:02.040Z,10.90
2019-04-30T03:02:32.903Z,10.67
2019-04-30T03:05:03.075Z,10.47
2019-04-30T03:07:32.880Z,11.87
2019-04-30T03:10:02.679Z,11.17
2019-04-30T03:12:33.791Z,10.70
2019-04-30T03:15:04.430Z,11.57
2019-04-30T03:17:52.213Z,11.83
2019-04-30T03:20:40.098Z,9.40
2019-04-30T03:23:10.166Z,11.20
2019-04-30T03:25:40.504Z,11.30
2019-04-30T03:28:10.823Z,11.43
2019-04-30T03:30:42.073Z,12.27
2019-04-30T03:33:13.262Z,11.50
2019-04-30T03:35:47.644Z,11.87
2019-04-30T03:38:14.986Z,11.50
2019-04-30T03:40:45.258Z,11.63
2019-04-30T03:43:15.125Z,11.07
2019-04-30T03:45:44.941Z,11.17
2019-04-30T03:48:14.733Z,11.53
2019-04-30T03:50:53.259Z,13.97
2019-04-30T03:53:15.964Z,11.33
2019-04-30T03:55:45.830Z,13.27
2019-04-30T03:58:16.077Z,12.17
2019-04-30T04:01:00.174Z,12.10
2019-04-30T04:03:29.714Z,11.20
2019-04-30T04:06:21.260Z,12.80
2019-04-30T04:08:57.238Z,12.00
2019-04-30T04:11:31.877Z,11.97
2019-04-30T04:14:01.639Z,11.17
2019-04-30T04:16:32.255Z,11.37
2019-04-30T04:19:03.051Z,14.23
2019-04-30T04:21:33.386Z,13.27
2019-04-30T04:24:03.202Z,11.17
2019-04-30T04:26:33.524Z,12.53
2019-04-30T04:29:03.302Z,11.00
2019-04-30T04:31:33.681Z,11.20
2019-04-30T04:34:04.858Z,12.50
2019-04-30T04:36:35.645Z,11.40
2019-04-30T04:39:06.202Z,10.90
2019-04-30T04:41:36.033Z,11.73
2019-04-30T04:44:05.792Z,12.90
2019-04-30T04:46:36.155Z,11.73
2019-04-30T04:49:05.938Z,11.07
2019-04-30T04:51:39.459Z,11.20
2019-04-30T04:54:10.143Z,11.07
2019-04-30T04:56:40.020Z,12.07
2019-04-30T04:59:11.577Z,11.57
2019-04-30T05:01:42.391Z,12.13
2019-04-30T05:04:12.608Z,12.33
2019-04-30T05:06:42.904Z,12.03
2019-04-30T05:09:12.684Z,11.17
2019-04-30T05:11:42.507Z,10.40
2019-04-30T05:14:12.257Z,10.93
2019-04-30T05:16:42.811Z,11.83
2019-04-30T05:19:12.587Z,11.53
2019-04-30T05:21:44.878Z,11.33
2019-04-30T05:24:15.485Z,11.50
2019-04-30T05:26:45.645Z,11.03
2019-04-30T05:29:15.405Z,11.13
2019-04-30T05:31:46.338Z,10.97
2019-04-30T05:34:16.247Z,11.17
2019-04-30T05:36:46.136Z,13.00
2019-04-30T05:39:15.914Z,11.87
2019-04-30T05:41:46.073Z,11.77
2019-04-30T05:44:15.849Z,11.77
2019-04-30T05:46:45.669Z,11.53
2019-04-30T05:49:15.485Z,11.37
2019-04-30T05:51:53.536Z,12.27
2019-04-30T05:54:18.919Z,10.97
2019-04-30T05:56:49.385Z,11.07
2019-04-30T05:59:20.636Z,11.20
2019-04-30T06:01:51.438Z,12.20
2019-04-30T06:04:21.326Z,11.07
2019-04-30T06:06:51.198Z,10.77
2019-04-30T06:09:38.609Z,11.60
2019-04-30T06:12:30.807Z,11.27
2019-04-30T06:15:31.286Z,12.30
2019-04-30T06:18:10.459Z,10.03
2019-04-30T06:20:32.982Z,11.20
2019-04-30T06:23:02.772Z,10.03
2019-04-30T06:25:45.723Z,10.67
2019-04-30T06:28:04.534Z,10.67
2019-04-30T06:30:34.724Z,10.97
2019-04-30T06:33:04.532Z,11.87
2019-04-30T06:35:34.302Z,10.90
2019-04-30T06:38:04.277Z,11.20
2019-04-30T06:40:34.030Z,12.53
2019-04-30T06:43:04.188Z,10.73
2019-04-30T06:45:33.930Z,10.83
2019-04-30T06:48:04.324Z,13.07
2019-04-30T06:50:34.135Z,11.33
2019-04-30T06:53:03.933Z,10.93
2019-04-30T06:55:34.159Z,11.43
2019-04-30T06:58:14.224Z,10.37
2019-04-30T07:00:40.237Z,9.87
2019-04-30T07:03:10.219Z,10.43
2019-04-30T07:05:40.010Z,10.33
2019-04-30T07:08:37.325Z,11.57
2019-04-30T07:11:16.378Z,10.53
2019-04-30T07:13:51.756Z,11.90
2019-04-30T07:16:20.688Z,10.93
2019-04-30T07:18:50.502Z,10.07
2019-04-30T07:21:20.326Z,10.93
2019-04-30T07:23:50.154Z,10.80
2019-04-30T07:26:24.359Z,11.07
2019-04-30T07:28:54.785Z,11.60
2019-04-30T07:31:22.865Z,9.87
2019-04-30T07:33:53.982Z,9.47
2019-04-30T07:36:42.464Z,10.60
2019-04-30T07:38:56.729Z,9.73
2019-04-30T07:41:30.864Z,10.97
2019-04-30T07:43:59.385Z,10.13
2019-04-30T07:46:34.756Z,10.60
2019-04-30T07:49:01.510Z,9.53
2019-04-30T07:51:37.480Z,9.37
2019-04-30T07:54:03.975Z,9.73
2019-04-30T07:56:38.071Z,9.93
2019-04-30T07:59:05.275Z,9.87
2019-04-30T08:01:35.132Z,12.27
2019-04-30T08:04:14.126Z,9.40
2019-04-30T08:06:43.950Z,9.17
2019-04-30T08:09:14.314Z,10.90
2019-04-30T08:11:44.596Z,11.03
2019-04-30T08:14:15.408Z,12.43
2019-04-30T08:16:45.837Z,9.97
2019-04-30T08:19:15.594Z,10.43
2019-04-30T08:21:48.577Z,9.40
2019-04-30T08:24:19.374Z,8.87
2019-04-30T08:26:49.733Z,9.20
2019-04-30T08:29:19.984Z,9.47
2019-04-30T08:31:50.265Z,8.83
2019-04-30T08:34:20.457Z,9.07
2019-04-30T08:36:51.481Z,7.53
2019-04-30T08:39:21.801Z,10.07
2019-04-30T08:41:52.085Z,7.70
2019-04-30T08:44:21.997Z,10.80
2019-04-30T08:46:55.613Z,8.77
2019-04-30T08:49:25.604Z,8.37
2019-04-30T08:51:55.726Z,8.13
2019-04-30T08:54:25.509Z,9.53
2019-04-30T08:56:55.314Z,9.57
2019-04-30T08:59:25.073Z,8.30
2019-04-30T09:01:54.942Z,7.60
2019-04-30T09:04:28.956Z,8.17
2019-04-30T09:06:59.972Z,8.77
2019-04-30T09:09:44.559Z,7.80
2019-04-30T09:12:13.902Z,8.53
2019-04-30T09:14:43.690Z,8.83
2019-04-30T09:17:13.498Z,7.60
2019-04-30T09:19:43.247Z,7.00
2019-04-30T09:22:15.304Z,7.73
2019-04-30T09:24:45.696Z,7.57
2019-04-30T09:27:15.503Z,9.63
2019-04-30T09:29:45.650Z,8.13
2019-04-30T09:32:15.998Z,7.27
2019-04-30T09:34:45.854Z,7.73
2019-04-30T09:37:16.149Z,7.33
2019-04-30T09:39:46.424Z,8.27
2019-04-30T09:42:16.284Z,8.03
2019-04-30T09:44:46.509Z,7.53
2019-04-30T09:47:16.836Z,7.20
2019-04-30T09:49:49.357Z,7.37
2019-04-30T09:52:19.667Z,9.70
2019-04-30T09:54:50.955Z,6.33
2019-04-30T09:57:21.067Z,7.60
2019-04-30T09:59:50.916Z,7.07
2019-04-30T10:02:20.723Z,7.20
2019-04-30T10:04:50.844Z,6.40
2019-04-30T10:07:21.604Z,7.33
2019-04-30T10:09:52.348Z,7.50
2019-04-30T10:12:22.134Z,7.83
2019-04-30T10:14:52.418Z,6.90
2019-04-30T10:17:34.786Z,6.90
2019-04-30T10:20:05.793Z,9.40
2019-04-30T10:22:36.209Z,6.83
2019-04-30T10:25:09.154Z,5.87
2019-04-30T10:27:38.911Z,9.87
2019-04-30T10:30:09.538Z,6.37
2019-04-30T10:32:39.840Z,5.97
2019-04-30T10:35:11.721Z,6.13
2019-04-30T10:37:41.502Z,5.83
2019-04-30T10:40:11.346Z,6.73
2019-04-30T10:42:41.112Z,6.47
2019-04-30T10:45:10.956Z,5.90
2019-04-30T10:47:41.108Z,6.20
2019-04-30T10:50:12.099Z,5.60
2019-04-30T10:52:41.898Z,6.37
2019-04-30T10:55:11.773Z,6.17
2019-04-30T10:57:41.557Z,6.17
2019-04-30T11:00:13.564Z,6.10
2019-04-30T11:02:43.866Z,6.20
2019-04-30T11:05:15.208Z,5.87
2019-04-30T11:07:45.953Z,5.60
2019-04-30T11:10:16.195Z,5.63
2019-04-30T11:12:45.995Z,5.80
2019-04-30T11:15:20.669Z,5.40
2019-04-30T11:17:49.710Z,5.63
2019-04-30T11:20:22.255Z,5.97
2019-04-30T11:22:53.094Z,5.60
2019-04-30T11:25:23.328Z,5.83
2019-04-30T11:27:54.167Z,6.53
2019-04-30T11:30:24.825Z,6.03
2019-04-30T11:32:55.575Z,5.73
2019-04-30T11:35:26.122Z,6.83
2019-04-30T11:37:55.995Z,5.47
2019-04-30T11:40:34.491Z,6.33
2019-04-30T11:42:59.196Z,5.43
2019-04-30T11:45:55.563Z,5.67
2019-04-30T11:48:25.803Z,4.87
2019-04-30T11:50:56.036Z,4.90
2019-04-30T11:53:30.162Z,5.90
2019-04-30T11:55:59.105Z,4.97
2019-04-30T11:58:30.521Z,7.00
2019-04-30T12:01:00.826Z,4.83
2019-04-30T12:03:30.625Z,5.73
2019-04-30T12:06:00.460Z,5.07
2019-04-30T12:08:33.517Z,5.93
2019-04-30T12:11:10.414Z,4.97
2019-04-30T12:13:40.619Z,4.83
2019-04-30T12:16:11.474Z,5.20
2019-04-30T12:18:41.643Z,6.70
2019-04-30T12:21:11.457Z,5.50
2019-04-30T12:23:41.233Z,4.53
2019-04-30T12:26:11.842Z,5.10
2019-04-30T12:28:42.335Z,4.90
2019-04-30T12:31:12.187Z,4.77
2019-04-30T12:33:42.100Z,4.30
2019-04-30T12:36:11.941Z,5.00
2019-04-30T12:38:42.538Z,5.50
2019-04-30T12:41:12.381Z,5.00
2019-04-30T12:43:42.141Z,5.03
2019-04-30T12:46:13.159Z,5.83
2019-04-30T12:49:20.153Z,5.23
2019-04-30T12:52:24.118Z,4.57
2019-04-30T12:55:15.591Z,4.20
2019-04-30T12:57:56.193Z,6.43
2019-04-30T13:00:16.878Z,4.57
2019-04-30T13:02:47.147Z,4.10
2019-04-30T13:05:18.723Z,5.40
2019-04-30T13:07:50.357Z,7.37
2019-04-30T13:10:21.071Z,4.57
2019-04-30T13:12:52.129Z,6.33
2019-04-30T13:15:22.348Z,4.27
2019-04-30T13:17:52.214Z,4.03
2019-04-30T13:20:24.155Z,3.73
2019-04-30T13:22:54.430Z,4.33
2019-04-30T13:25:32.450Z,4.30
2019-04-30T13:28:00.648Z,4.13
2019-04-30T13:30:32.233Z,3.73
2019-04-30T13:33:28.838Z,3.93
2019-04-30T13:35:59.221Z,4.30
2019-04-30T13:38:45.100Z,5.30
2019-04-30T13:41:29.686Z,4.20
2019-04-30T13:44:09.657Z,6.20
2019-04-30T13:46:40.093Z,3.57
2019-04-30T13:49:09.905Z,4.17
2019-04-30T13:51:42.872Z,4.23
2019-04-30T13:54:12.395Z,3.90
2019-04-30T13:56:42.558Z,3.70
2019-04-30T13:59:12.383Z,3.80
2019-04-30T14:01:42.183Z,3.90
2019-04-30T14:04:30.835Z,3.47
2019-04-30T14:07:19.432Z,3.70
2019-04-30T14:09:52.357Z,3.50
2019-04-30T14:12:21.577Z,3.60
2019-04-30T14:14:53.328Z,5.03
2019-04-30T14:17:23.902Z,3.60
2019-04-30T14:19:54.235Z,4.43
2019-04-30T14:22:24.057Z,3.77
2019-04-30T14:24:53.862Z,3.33
2019-04-30T14:27:24.843Z,3.93
2019-04-30T14:29:55.091Z,3.77
2019-04-30T14:32:24.924Z,3.17
2019-04-30T14:34:55.224Z,3.20
2019-04-30T14:37:25.429Z,3.77
2019-04-30T14:39:55.917Z,3.40
2019-04-30T14:42:27.341Z,4.27
2019-04-30T14:45:10.005Z,3.10
2019-04-30T14:47:51.473Z,3.10
2019-04-30T14:50:22.382Z,2.63
2019-04-30T14:52:59.886Z,3.03
2019-04-30T14:55:51.463Z,3.00
2019-04-30T14:58:39.375Z,4.30
2019-04-30T15:01:19.388Z,3.17
2019-04-30T15:03:49.795Z,3.57
2019-04-30T15:06:20.492Z,3.10
2019-04-30T15:08:50.389Z,2.90
2019-04-30T15:11:20.214Z,2.50
2019-04-30T15:13:50.561Z,2.40
2019-04-30T15:16:20.376Z,3.30
2019-04-30T15:18:50.194Z,2.40
2019-04-30T15:21:19.998Z,2.40
2019-04-30T15:24:02.651Z,2.63
2019-04-30T15:26:32.896Z,2.00
2019-04-30T15:29:12.172Z,2.20
2019-04-30T15:31:34.414Z,2.07
2019-04-30T15:34:14.903Z,1.87
2019-04-30T15:36:44.719Z,3.10
2019-04-30T15:39:39.362Z,2.23
2019-04-30T15:42:10.560Z,2.30
2019-04-30T15:44:42.669Z,2.83
2019-04-30T15:47:11.836Z,3.07
2019-04-30T15:49:41.664Z,1.80
2019-04-30T15:52:11.466Z,1.83
2019-04-30T15:54:41.289Z,2.53
2019-04-30T15:57:11.521Z,1.80
2019-04-30T15:59:42.796Z,2.30
2019-04-30T16:02:31.420Z,1.60
2019-04-30T16:05:19.160Z,1.80
2019-04-30T16:08:26.678Z,1.70
2019-04-30T16:11:16.210Z,2.60
2019-04-30T16:14:20.091Z,1.60
2019-04-30T16:17:15.077Z,1.90
2019-04-30T16:19:45.057Z,1.70
2019-04-30T16:22:14.900Z,1.80
2019-04-30T16:24:44.694Z,1.70
2019-04-30T16:27:14.521Z,1.50
2019-04-30T16:29:44.311Z,1.50
2019-04-30T16:32:14.108Z,2.00
2019-04-30T16:34:44.371Z,1.83
2019-04-30T16:37:15.043Z,1.80
2019-04-30T16:39:44.861Z,1.93
2019-04-30T16:42:15.624Z,1.90
2019-04-30T16:44:45.717Z,1.67
2019-04-30T16:47:16.968Z,2.63
2019-04-30T16:49:48.853Z,1.70
2019-04-30T16:52:19.115Z,1.70
2019-04-30T16:54:49.987Z,1.83
2019-04-30T16:57:19.810Z,1.57
2019-04-30T16:59:53.349Z,2.60
2019-04-30T17:02:24.866Z,1.87
2019-04-30T17:05:02.953Z,3.90
2019-04-30T17:07:46.540Z,4.77
2019-04-30T17:10:30.489Z,3.17
2019-04-30T17:13:24.921Z,1.90
2019-04-30T17:15:59.451Z,1.70
2019-04-30T17:18:29.719Z,1.60
2019-04-30T17:21:00.096Z,2.33
2019-04-30T17:23:30.424Z,2.30
2019-04-30T17:26:00.586Z,1.90
2019-04-30T17:28:30.740Z,2.80
2019-04-30T17:31:00.687Z,2.30
2019-04-30T17:33:30.494Z,1.73
2019-04-30T17:36:00.822Z,1.60
2019-04-30T17:38:31.062Z,1.70
2019-04-30T17:41:00.894Z,1.63
2019-04-30T17:43:31.132Z,1.27
2019-04-30T17:46:00.963Z,2.07
2019-04-30T17:48:30.978Z,2.67
2019-04-30T17:51:01.339Z,2.90
2019-04-30T17:53:32.042Z,1.53
2019-04-30T17:56:01.900Z,1.23
2019-04-30T17:58:31.707Z,1.90
2019-04-30T18:01:03.505Z,1.30
2019-04-30T18:03:33.774Z,1.27
2019-04-30T18:06:04.111Z,1.57
2019-04-30T18:08:33.892Z,1.30
2019-04-30T18:11:03.717Z,1.37
2019-04-30T18:13:34.135Z,1.50
2019-04-30T18:16:04.099Z,1.87
2019-04-30T18:18:59.211Z,1.23
2019-04-30T18:21:50.919Z,1.10
2019-04-30T18:24:52.076Z,1.90
2019-04-30T18:27:25.584Z,1.00
2019-04-30T18:29:56.099Z,1.20
2019-04-30T18:32:29.624Z,2.03
2019-04-30T18:34:59.622Z,1.13
2019-04-30T18:37:29.448Z,4.10
2019-04-30T18:40:00.178Z,0.93
2019-04-30T18:42:30.904Z,1.20
2019-04-30T18:45:01.874Z,1.20
2019-04-30T18:47:32.312Z,2.50
2019-04-30T18:50:02.832Z,1.23
2019-04-30T18:52:33.694Z,1.30
2019-04-30T18:55:04.717Z,1.27
2019-04-30T18:57:35.033Z,1.20
2019-04-30T19:00:05.779Z,1.33
2019-04-30T19:02:36.232Z,1.37
2019-04-30T19:05:09.540Z,1.20
2019-04-30T19:07:46.229Z,1.50
2019-04-30T19:10:33.726Z,1.27
2019-04-30T19:13:19.049Z,2.10
2019-04-30T19:16:19.693Z,1.23
2019-04-30T19:18:46.326Z,2.57
2019-04-30T19:21:16.967Z,1.50
2019-04-30T19:23:48.713Z,1.90
2019-04-30T19:26:19.004Z,1.37
2019-04-30T19:28:50.254Z,1.50
2019-04-30T19:31:21.136Z,1.40
2019-04-30T19:33:51.945Z,1.30
2019-04-30T19:36:35.151Z,2.00
2019-04-30T19:38:53.879Z,1.60
2019-04-30T19:41:23.736Z,1.37
2019-04-30T19:43:54.816Z,1.60
2019-04-30T19:46:24.579Z,3.17
2019-04-30T19:48:54.842Z,1.57
2019-04-30T19:51:25.109Z,2.57
2019-04-30T19:53:55.859Z,2.07
2019-04-30T19:56:25.677Z,2.20
2019-04-30T19:59:02.789Z,1.70
2019-04-30T20:01:28.668Z,1.97
2019-04-30T20:03:59.647Z,2.03
2019-04-30T20:06:29.809Z,1.93
2019-04-30T20:09:00.828Z,1.87
2019-04-30T20:11:31.866Z,1.70
2019-04-30T20:14:04.531Z,2.20
2019-04-30T20:16:35.897Z,2.43
2019-04-30T20:19:06.333Z,2.00
2019-04-30T20:21:48.170Z,1.73
2019-04-30T20:24:08.521Z,2.30
2019-04-30T20:26:38.456Z,1.53
2019-04-30T20:29:09.099Z,1.70
2019-04-30T20:31:40.485Z,1.73
2019-04-30T20:34:10.455Z,1.60
2019-04-30T20:36:40.249Z,7.00
2019-04-30T20:39:29.177Z,2.47
2019-04-30T20:41:59.291Z,2.50
2019-04-30T20:44:29.667Z,2.83
2019-04-30T20:47:00.099Z,2.10
2019-04-30T20:49:30.521Z,1.97
2019-04-30T20:52:01.686Z,2.50
2019-04-30T20:54:32.426Z,2.03
2019-04-30T20:57:02.956Z,2.07
2019-04-30T20:59:32.876Z,2.20
2019-04-30T21:02:03.074Z,2.13
2019-04-30T21:04:32.906Z,2.63
2019-04-30T21:07:03.305Z,2.07
2019-04-30T21:09:33.102Z,2.30
2019-04-30T21:12:03.645Z,2.37
2019-04-30T21:14:33.665Z,3.53
2019-04-30T21:17:03.894Z,2.27
2019-04-30T21:19:34.066Z,3.27
2019-04-30T21:22:04.373Z,2.10
2019-04-30T21:24:34.642Z,1.73
2019-04-30T21:27:04.576Z,1.80
2019-04-30T21:29:34.847Z,3.00
2019-04-30T21:32:16.703Z,3.03
2019-04-30T21:35:20.493Z,1.70
2019-04-30T21:37:50.319Z,2.03
2019-04-30T21:40:20.106Z,2.17
2019-04-30T21:42:50.477Z,1.63
2019-04-30T21:45:20.267Z,2.03
2019-04-30T21:47:56.340Z,1.90
2019-04-30T21:50:21.747Z,1.60
2019-04-30T21:52:51.945Z,2.23
2019-04-30T21:55:21.716Z,1.60
2019-04-30T21:57:51.529Z,2.30
2019-04-30T22:00:55.575Z,2.20
2019-04-30T22:03:25.549Z,2.03
2019-04-30T22:05:55.744Z,2.03
2019-04-30T22:08:25.998Z,2.03
2019-04-30T22:10:56.227Z,2.40
2019-04-30T22:13:26.530Z,2.07
2019-04-30T22:15:56.296Z,2.47
2019-04-30T22:18:26.680Z,2.67
2019-04-30T22:20:57.057Z,2.17
2019-04-30T22:23:26.890Z,1.83
2019-04-30T22:25:56.681Z,2.13
2019-04-30T22:28:26.478Z,2.40
2019-04-30T22:30:56.281Z,1.80
2019-04-30T22:33:26.107Z,2.37
2019-04-30T22:36:18.880Z,2.37
2019-04-30T22:39:06.614Z,2.20
2019-04-30T22:41:36.404Z,2.17
2019-04-30T22:44:06.228Z,2.37
2019-04-30T22:46:36.562Z,2.47
2019-04-30T22:49:06.574Z,2.63
2019-04-30T22:51:36.383Z,2.30
2019-04-30T22:54:07.568Z,4.13
2019-04-30T22:56:37.392Z,2.30
2019-04-30T22:59:07.238Z,2.20
2019-04-30T23:01:58.587Z,2.03
2019-04-30T23:04:47.247Z,2.40
2019-04-30T23:07:17.970Z,2.00
2019-04-30T23:09:50.674Z,2.33
2019-04-30T23:12:21.281Z,2.50
2019-04-30T23:14:51.107Z,2.40
2019-04-30T23:17:20.954Z,4.67
2019-04-30T23:19:51.152Z,3.13
2019-04-30T23:22:21.460Z,2.40
2019-04-30T23:24:51.725Z,2.60
2019-04-30T23:27:21.510Z,2.77
2019-04-30T23:30:02.743Z,2.47
2019-04-30T23:32:23.279Z,3.40
2019-04-30T23:34:53.112Z,3.03
2019-04-30T23:37:23.424Z,2.50
2019-04-30T23:39:53.282Z,2.70
2019-04-30T23:42:23.535Z,2.60
2019-04-30T23:44:53.347Z,5.03
2019-04-30T23:47:23.330Z,2.37
2019-04-30T23:49:53.648Z,3.70
2019-04-30T23:52:23.438Z,2.30
2019-04-30T23:54:53.671Z,2.67
2019-04-30T23:57:23.540Z,2.50
2019-04-30T23:59:53.437Z,2.63
